Time;durP1;ratioP1;P1;durP2;ratioP2;P2;SDS_P1;SDS_P2;PMS_P1;PMS_P2;Temp;Humidity;BMP_temperature;BMP_pressure;BME280_temperature;BME280_humidity;BME280_pressure;Samples;Min_cycle;Max_cycle;Signal;HPM_P1;HPM_P2
2022/11/01 00:01:55;;;;;;;34.08;7.57;;;;;;;13.17;100.00;99707.34;4949448;28;20078;-90
2022/11/01 00:04:23;;;;;;;29.75;8.65;;;;;;;13.23;100.00;99699.94;4956068;28;20130;-90
2022/11/01 00:06:50;;;;;;;20.52;5.80;;;;;;;12.95;100.00;99658.81;4972028;28;20106;-90
2022/11/01 00:09:17;;;;;;;29.45;6.07;;;;;;;13.25;100.00;99692.78;4964541;28;20055;-90
2022/11/01 00:11:44;;;;;;;24.55;6.30;;;;;;;12.91;100.00;99659.97;4959592;28;20055;-90
2022/11/01 00:14:12;;;;;;;29.83;7.57;;;;;;;13.05;100.00;99686.19;4950423;28;20058;-91
2022/11/01 00:16:40;;;;;;;22.98;6.15;;;;;;;13.15;100.00;99696.94;4966038;28;20055;-90
2022/11/01 00:19:07;;;;;;;28.17;6.72;;;;;;;13.07;100.00;99705.34;4941625;28;20113;-90
2022/11/01 00:21:33;;;;;;;31.70;6.75;;;;;;;13.02;100.00;99673.25;4955228;28;20441;-90
2022/11/01 00:24:00;;;;;;;33.75;7.35;;;;;;;13.00;100.00;99674.31;4967858;28;20049;-91
2022/11/01 00:26:27;;;;;;;23.05;6.78;;;;;;;12.98;100.00;99668.28;4955373;28;20057;-91
2022/11/01 00:28:54;;;;;;;26.40;6.60;;;;;;;13.25;100.00;99686.69;4954969;28;20117;-91
2022/11/01 00:31:21;;;;;;;29.70;6.30;;;;;;;12.99;100.00;99678.69;4981765;28;20050;-91
2022/11/01 00:33:48;;;;;;;27.23;6.97;;;;;;;12.97;100.00;99650.84;4973438;28;20050;-91
2022/11/01 00:36:14;;;;;;;26.45;7.65;;;;;;;13.02;100.00;99664.53;4955525;28;20050;-89
2022/11/01 00:38:47;;;;;;;29.02;6.85;;;;;;;12.98;100.00;99645.50;4949660;28;20046;-89
2022/11/01 00:41:19;;;;;;;26.92;7.93;;;;;;;12.93;100.00;99638.84;4955297;28;20054;-90
2022/11/01 00:43:47;;;;;;;29.38;8.50;;;;;;;13.03;100.00;99651.28;4954603;28;20055;-89
2022/11/01 00:46:15;;;;;;;24.23;7.43;;;;;;;12.99;100.00;99639.28;4971563;28;20053;-89
2022/11/01 00:48:41;;;;;;;25.38;7.38;;;;;;;12.96;100.00;99623.75;4951372;28;20062;-89
2022/11/01 00:51:08;;;;;;;22.58;6.60;;;;;;;12.76;100.00;99595.28;4954284;28;20157;-89
2022/11/01 00:53:35;;;;;;;19.88;6.95;;;;;;;12.83;100.00;99609.69;4954326;28;20102;-89
2022/11/01 00:56:04;;;;;;;22.00;7.15;;;;;;;13.13;100.00;99629.66;4956352;28;20054;-89
2022/11/01 00:58:31;;;;;;;41.38;9.65;;;;;;;12.86;100.00;99585.88;4951204;29;20110;-89
2022/11/01 01:00:58;;;;;;;27.02;7.57;;;;;;;12.89;100.00;99590.91;4971205;28;20054;-90
2022/11/01 01:03:25;;;;;;;27.85;8.57;;;;;;;13.11;100.00;99598.22;4954600;28;20063;-89
2022/11/01 01:05:53;;;;;;;26.70;8.45;;;;;;;12.93;100.00;99579.28;4955054;28;20126;-90
2022/11/01 01:08:20;;;;;;;17.33;6.80;;;;;;;13.05;100.00;99593.34;4951318;28;20193;-89
2022/11/01 01:10:47;;;;;;;22.75;8.15;;;;;;;13.01;100.00;99578.75;4972082;28;20051;-89
2022/11/01 01:13:14;;;;;;;21.77;7.95;;;;;;;13.08;100.00;99573.00;4962731;28;20059;-89
2022/11/01 01:15:41;;;;;;;21.83;6.47;;;;;;;13.13;100.00;99574.47;4968105;28;20062;-89
2022/11/01 01:18:08;;;;;;;28.05;7.80;;;;;;;13.10;100.00;99550.09;4954759;28;20401;-89
2022/11/01 01:20:35;;;;;;;27.33;8.27;;;;;;;12.90;100.00;99546.16;4956354;28;20055;-89
2022/11/01 01:23:02;;;;;;;20.90;6.45;;;;;;;13.09;100.00;99553.66;4975182;28;20101;-89
2022/11/01 01:25:29;;;;;;;19.60;6.70;;;;;;;12.85;100.00;99514.06;4958334;28;20050;-90
2022/11/01 01:27:55;;;;;;;21.30;7.15;;;;;;;12.88;100.00;99513.06;4958234;28;20413;-89
2022/11/01 01:30:22;;;;;;;19.50;6.55;;;;;;;13.14;100.00;99534.97;4957478;28;20050;-90
2022/11/01 01:32:49;;;;;;;18.45;7.30;;;;;;;12.90;100.00;99490.16;4955669;29;20051;-90
2022/11/01 01:35:16;;;;;;;22.02;7.07;;;;;;;13.21;100.00;99533.59;4972143;28;20117;-91
2022/11/01 01:37:43;;;;;;;18.83;7.78;;;;;;;13.20;100.00;99513.50;4950731;29;20085;-91
2022/11/01 01:40:10;;;;;;;17.65;6.93;;;;;;;13.21;100.00;99520.47;4972041;28;20055;-92
2022/11/01 01:42:39;;;;;;;34.15;8.57;;;;;;;12.97;100.00;99487.94;4958152;28;20080;-91
2022/11/01 01:45:30;;;;;;;20.63;7.57;;;;;;;13.41;100.00;99489.38;4960731;28;20113;-92
2022/11/01 01:48:11;;;;;;;25.08;7.75;;;;;;;13.07;100.00;99483.75;4947455;28;20085;-91
2022/11/01 01:51:13;;;;;;;18.80;7.07;;;;;;;13.28;100.00;99476.19;4956904;28;20055;-93
2022/11/01 01:53:46;;;;;;;42.58;9.95;;;;;;;13.18;100.00;99465.47;4931760;28;20051;-93
2022/11/01 01:56:22;;;;;;;20.23;9.02;;;;;;;13.23;100.00;99455.47;4958442;28;20051;-90
2022/11/01 01:58:54;;;;;;;19.73;7.05;;;;;;;13.27;100.00;99445.59;4975207;28;20448;-91
2022/11/01 02:01:21;;;;;;;15.05;6.28;;;;;;;13.13;100.00;99409.75;4958018;28;20063;-90
2022/11/01 02:03:48;;;;;;;19.13;7.68;;;;;;;13.12;100.00;99405.47;4958222;28;20051;-91
2022/11/01 02:06:20;;;;;;;22.25;6.72;;;;;;;13.25;100.00;99410.69;4958154;28;20422;-90
2022/11/01 02:08:59;;;;;;;15.95;5.18;;;;;;;13.43;100.00;99400.69;4957530;28;20125;-91
2022/11/01 02:11:26;;;;;;;18.88;5.70;;;;;;;13.08;100.00;99388.19;4962654;28;20050;-90
2022/11/01 02:13:52;;;;;;;19.92;6.63;;;;;;;13.15;100.00;99386.81;4963979;28;20440;-91
2022/11/01 02:16:31;;;;;;;18.27;5.60;;;;;;;13.40;100.00;99378.09;4946083;28;20097;-91
2022/11/01 02:19:23;;;;;;;25.40;8.00;;;;;;;13.37;100.00;99380.94;4948894;28;20047;-92
2022/11/01 02:22:20;;;;;;;18.67;6.32;;;;;;;13.34;100.00;99373.28;4945645;28;20058;-91
2022/11/01 02:24:50;;;;;;;21.15;6.18;;;;;;;13.37;100.00;99367.81;4974727;28;20054;-91
2022/11/01 02:27:41;;;;;;;21.88;6.10;;;;;;;13.34;100.00;99341.72;4957607;28;20453;-91
2022/11/01 02:30:13;;;;;;;14.88;5.05;;;;;;;13.17;100.00;99349.94;4972299;28;20122;-91
2022/11/01 02:32:55;;;;;;;13.90;4.63;;;;;;;13.33;100.00;99344.47;4953031;28;20051;-91
2022/11/01 02:35:40;;;;;;;14.10;5.13;;;;;;;13.26;100.00;99334.38;4957127;28;20645;-91
2022/11/01 02:38:41;;;;;;;14.77;4.78;;;;;;;13.32;100.00;99334.91;4961274;28;20434;-91
2022/11/01 02:41:18;;;;;;;19.52;5.45;;;;;;;13.25;100.00;99313.44;4957359;28;20465;-91
2022/11/01 02:43:57;;;;;;;19.23;4.85;;;;;;;13.17;100.00;99298.19;4957240;28;20457;-91
2022/11/01 02:49:14;;;;;;;17.63;4.22;;;;;;;13.10;100.00;99250.53;4974239;28;20069;-91
2022/11/01 02:51:43;;;;;;;16.30;5.05;;;;;;;13.26;100.00;99263.41;4956564;28;20453;-91
2022/11/01 02:54:21;;;;;;;12.07;4.40;;;;;;;13.22;100.00;99271.59;4969433;28;20074;-91
2022/11/01 02:56:49;;;;;;;17.90;5.68;;;;;;;13.00;100.00;99219.75;4951456;28;20057;-92
2022/11/01 02:59:25;;;;;;;15.05;4.35;;;;;;;13.21;100.00;99251.50;4955735;28;20053;-92
2022/11/01 03:02:04;;;;;;;22.58;6.15;;;;;;;13.01;100.00;99240.66;4957984;28;20051;-91
2022/11/01 03:04:31;;;;;;;20.70;6.05;;;;;;;13.06;100.00;99209.63;4968461;28;20557;-91
2022/11/01 03:07:02;;;;;;;11.77;4.43;;;;;;;13.16;100.00;99217.69;4968202;28;20114;-91
2022/11/01 03:09:30;;;;;;;12.75;4.20;;;;;;;13.21;100.00;99227.88;4964823;28;20109;-91
2022/11/01 03:12:11;;;;;;;18.13;5.78;;;;;;;13.05;100.00;99205.34;4962111;28;20054;-91
2022/11/01 03:14:38;;;;;;;13.25;5.07;;;;;;;12.86;100.00;99184.81;4973091;28;20126;-91
2022/11/01 03:17:12;;;;;;;15.82;4.75;;;;;;;13.02;100.00;99205.56;4973871;28;20050;-91
2022/11/01 03:20:03;;;;;;;14.82;4.53;;;;;;;12.98;100.00;99185.72;4972062;28;20441;-91
2022/11/01 03:22:38;;;;;;;13.73;5.13;;;;;;;13.21;100.00;99230.50;4956162;28;20058;-91
2022/11/01 03:28:00;;;;;;;17.88;5.13;;;;;;;13.21;100.00;99193.69;4960298;28;20054;-91
2022/11/01 03:30:30;;;;;;;16.02;5.05;;;;;;;12.99;100.00;99155.84;4960257;28;20050;-92
2022/11/01 03:32:57;;;;;;;13.07;4.90;;;;;;;13.05;100.00;99167.69;4967231;28;20050;-91
2022/11/01 03:35:29;;;;;;;17.98;5.35;;;;;;;13.07;100.00;99182.41;4962876;28;20129;-91
2022/11/01 03:38:01;;;;;;;21.58;5.82;;;;;;;12.97;100.00;99172.69;4956360;28;20117;-91
2022/11/01 03:40:29;;;;;;;12.15;3.85;;;;;;;13.00;100.00;99164.59;4968059;28;20130;-91
2022/11/01 03:43:03;;;;;;;13.93;4.28;;;;;;;13.26;100.00;99174.03;4955411;28;20062;-91
2022/11/01 03:45:34;;;;;;;18.42;4.50;;;;;;;13.06;100.00;99120.28;4973477;28;20133;-91
2022/11/01 03:48:01;;;;;;;15.98;4.60;;;;;;;13.13;100.00;99109.34;4970986;28;20062;-90
2022/11/01 03:50:28;;;;;;;19.50;5.72;;;;;;;13.13;100.00;99096.22;4962883;28;20063;-91
2022/11/01 03:52:55;;;;;;;14.77;5.50;;;;;;;13.22;100.00;99116.53;4956451;28;20059;-92
2022/11/01 03:55:23;;;;;;;12.15;3.85;;;;;;;13.41;100.00;99061.66;4970739;28;20091;-92
2022/11/01 03:57:58;;;;;;;18.10;5.35;;;;;;;13.61;100.00;99062.75;4962855;28;20162;-92
2022/11/01 04:00:27;;;;;;;19.55;6.90;;;;;;;13.71;100.00;99057.66;4950517;28;20055;-91
2022/11/01 04:02:55;;;;;;;15.82;4.82;;;;;;;13.93;100.00;99048.06;4961674;28;20055;-92
2022/11/01 04:05:24;;;;;;;20.15;6.15;;;;;;;13.85;100.00;99044.25;4953944;28;20047;-91
2022/11/01 04:07:51;;;;;;;17.92;4.65;;;;;;;13.53;100.00;99045.91;4964258;28;20482;-91
2022/11/01 04:10:19;;;;;;;14.13;4.93;;;;;;;13.27;100.00;99007.47;4954978;28;20043;-92
2022/11/01 04:12:48;;;;;;;14.80;3.78;;;;;;;13.32;100.00;99014.22;4973293;28;20056;-92
2022/11/01 04:21:20;;;;;;;12.32;4.30;;;;;;;13.54;100.00;98948.50;4974853;28;20057;-92
2022/11/01 04:23:47;;;;;;;11.02;3.60;;;;;;;13.27;100.00;98962.81;4953536;28;20042;-91
2022/11/01 04:26:20;;;;;;;10.40;3.60;;;;;;;13.35;100.00;98974.53;4955375;28;20055;-91
2022/11/01 04:28:55;;;;;;;14.15;3.88;;;;;;;13.15;100.00;98947.97;4954719;28;20055;-92
2022/11/01 04:31:24;;;;;;;16.83;4.28;;;;;;;13.21;100.00;98965.91;4966101;28;20429;-92
2022/11/01 04:33:50;;;;;;;9.93;3.50;;;;;;;13.17;100.00;98953.13;4958852;28;20050;-92
2022/11/01 04:36:17;;;;;;;19.42;5.05;;;;;;;13.23;100.00;98939.53;4942895;28;20105;-92
2022/11/01 04:38:47;;;;;;;13.05;4.72;;;;;;;13.28;100.00;98956.59;4972285;28;20097;-92
2022/11/01 04:41:16;;;;;;;11.02;4.03;;;;;;;13.02;100.00;98886.84;4964271;28;20059;-92
2022/11/01 04:43:44;;;;;;;13.63;4.13;;;;;;;13.17;100.00;98911.06;4955530;28;20054;-92
2022/11/01 04:46:10;;;;;;;19.05;4.53;;;;;;;13.21;100.00;98905.47;4955875;28;20050;-92
2022/11/01 04:48:38;;;;;;;14.57;4.40;;;;;;;13.13;100.00;98883.38;4956346;28;20117;-92
2022/11/01 04:51:04;;;;;;;14.20;4.25;;;;;;;13.18;100.00;98878.59;4957059;28;20066;-93
2022/11/01 04:53:31;;;;;;;12.10;3.58;;;;;;;13.20;100.00;98866.16;4955570;28;20058;-91
2022/11/01 04:55:59;;;;;;;11.98;4.13;;;;;;;13.25;100.00;98866.66;4957885;28;20058;-91
2022/11/01 04:58:26;;;;;;;14.10;4.25;;;;;;;13.28;100.00;98869.88;4978148;28;20057;-92
2022/11/01 05:00:53;;;;;;;11.43;2.60;;;;;;;13.30;100.00;98873.22;4961841;28;20054;-91
2022/11/01 05:03:20;;;;;;;16.67;5.10;;;;;;;13.10;100.00;98845.03;4978673;28;20085;-92
2022/11/01 05:05:46;;;;;;;14.48;4.53;;;;;;;13.14;100.00;98858.75;4952012;29;20055;-92
2022/11/01 05:08:13;;;;;;;10.70;3.50;;;;;;;13.23;100.00;98845.75;4953861;28;20058;-92
2022/11/01 05:10:43;;;;;;;9.73;2.97;;;;;;;13.45;100.00;98847.53;4955752;28;20454;-92
2022/11/01 05:13:12;;;;;;;10.07;2.92;;;;;;;13.46;100.00;98840.50;4979738;28;20479;-91
2022/11/01 05:15:39;;;;;;;11.43;3.33;;;;;;;13.50;100.00;98828.75;4962230;28;20043;-91
2022/11/01 05:18:25;;;;;;;9.07;2.80;;;;;;;13.27;100.00;98789.34;4962414;28;20058;-92
2022/11/01 05:20:52;;;;;;;10.75;2.53;;;;;;;13.22;100.00;98774.91;4973410;28;20117;-91
2022/11/01 05:23:19;;;;;;;10.40;2.55;;;;;;;13.31;100.00;98771.56;4959262;28;20063;-92
2022/11/01 05:25:45;;;;;;;8.27;2.28;;;;;;;13.42;100.00;98778.59;4959226;28;20042;-92
2022/11/01 05:28:13;;;;;;;7.45;2.08;;;;;;;13.23;100.00;98732.75;4959323;28;20137;-91
2022/11/01 05:30:41;;;;;;;7.53;2.15;;;;;;;13.45;100.00;98763.41;4958716;28;20453;-92
2022/11/01 05:33:09;;;;;;;11.57;2.60;;;;;;;13.32;100.00;98743.50;4959184;28;20118;-92
2022/11/01 05:35:36;;;;;;;10.15;2.28;;;;;;;13.45;100.00;98744.16;4969738;28;20055;-92
2022/11/01 05:38:03;;;;;;;10.70;2.63;;;;;;;13.52;100.00;98731.38;4959819;28;20142;-91
2022/11/01 05:40:31;;;;;;;11.05;2.58;;;;;;;13.47;100.00;98722.06;4969247;28;20082;-91
2022/11/01 05:42:58;;;;;;;13.25;3.65;;;;;;;13.21;100.00;98687.38;4952198;28;20106;-90
2022/11/01 05:45:26;;;;;;;14.98;3.92;;;;;;;13.31;100.00;98679.56;4960196;28;20058;-91
2022/11/01 05:47:52;;;;;;;14.68;4.80;;;;;;;12.93;100.00;98643.28;4978616;28;20646;-90
2022/11/01 05:50:20;;;;;;;11.65;3.53;;;;;;;13.64;100.00;98675.16;4959228;28;20067;-92
2022/11/01 05:52:48;;;;;;;15.57;4.28;;;;;;;13.63;100.00;98649.78;4958768;28;20062;-91
2022/11/01 05:55:15;;;;;;;12.73;4.53;;;;;;;13.18;100.00;98635.06;4961612;28;20051;-91
2022/11/01 05:57:42;;;;;;;10.18;3.85;;;;;;;13.30;100.00;98634.03;4967368;28;20059;-90
2022/11/01 06:00:09;;;;;;;12.65;4.28;;;;;;;13.13;100.00;98599.59;4964027;28;20062;-90
2022/11/01 06:02:36;;;;;;;16.13;5.63;;;;;;;13.39;100.00;98629.84;4965105;28;20053;-91
2022/11/01 06:05:03;;;;;;;11.15;4.93;;;;;;;13.55;100.00;98637.31;4964519;28;20050;-91
2022/11/01 06:07:30;;;;;;;13.80;5.25;;;;;;;13.40;100.00;98628.06;4962744;28;20054;-90
2022/11/01 06:09:56;;;;;;;8.50;2.85;;;;;;;13.45;100.00;98608.31;4966755;28;20079;-91
2022/11/01 06:12:24;;;;;;;10.40;3.10;;;;;;;13.57;100.00;98619.59;4978546;28;20050;-90
2022/11/01 06:14:51;;;;;;;9.25;2.47;;;;;;;13.33;100.00;98608.50;4948855;28;20078;-90
2022/11/01 06:17:18;;;;;;;4.50;1.40;;;;;;;13.13;100.00;98618.00;4973249;28;20371;-90
2022/11/01 06:19:45;;;;;;;3.00;1.02;;;;;;;12.94;100.00;98601.09;4950397;28;20976;-90
2022/11/01 06:22:11;;;;;;;3.92;1.20;;;;;;;12.85;100.00;98576.41;4958580;28;20386;-90
2022/11/01 06:24:38;;;;;;;2.55;0.85;;;;;;;12.86;100.00;98564.13;4956212;28;20051;-89
2022/11/01 06:27:05;;;;;;;2.13;0.80;;;;;;;13.02;100.00;98596.06;4968611;28;20070;-88
2022/11/01 06:29:38;;;;;;;1.73;0.90;;;;;;;12.97;100.00;98582.47;4957772;28;20365;-88
2022/11/01 06:32:05;;;;;;;3.13;0.98;;;;;;;12.88;100.00;98564.84;4958717;28;20066;-88
2022/11/01 06:34:32;;;;;;;1.23;0.90;;;;;;;12.96;100.00;98577.34;4967031;28;20050;-89
2022/11/01 06:36:59;;;;;;;2.40;1.15;;;;;;;12.91;100.00;98559.34;4959189;28;20067;-87
2022/11/01 06:39:26;;;;;;;2.33;1.10;;;;;;;13.11;100.00;98590.03;4958957;28;20043;-87
2022/11/01 06:41:53;;;;;;;2.45;0.95;;;;;;;13.13;100.00;98557.56;4949692;28;20047;-89
2022/11/01 06:44:20;;;;;;;1.75;0.80;;;;;;;13.28;100.00;98562.38;4948957;28;20047;-88
2022/11/01 06:46:47;;;;;;;1.85;0.90;;;;;;;13.14;100.00;98554.81;4954585;28;20132;-90
2022/11/01 06:49:13;;;;;;;1.38;0.80;;;;;;;13.01;100.00;98531.34;4969216;28;20101;-87
2022/11/01 06:51:44;;;;;;;2.58;0.90;;;;;;;12.96;100.00;98525.66;4953930;28;20054;-87
2022/11/01 06:54:11;;;;;;;1.48;0.80;;;;;;;13.05;100.00;98524.03;4949317;28;20134;-89
2022/11/01 06:56:38;;;;;;;1.00;0.82;;;;;;;12.93;100.00;98510.13;4952310;28;20051;-89
2022/11/01 06:59:05;;;;;;;2.13;0.90;;;;;;;13.02;100.00;98519.06;4955137;28;20047;-90
2022/11/01 07:01:32;;;;;;;2.03;0.90;;;;;;;13.07;100.00;98516.88;4947786;28;20059;-88
2022/11/01 07:03:59;;;;;;;1.85;0.90;;;;;;;12.81;100.00;98480.47;4960043;28;20050;-89
2022/11/01 07:06:29;;;;;;;2.35;0.90;;;;;;;12.90;100.00;98510.38;4956129;28;20051;-89
2022/11/01 07:09:00;;;;;;;1.90;0.93;;;;;;;12.98;100.00;98522.88;4962810;28;20129;-89
2022/11/01 07:11:26;;;;;;;3.35;1.10;;;;;;;12.75;100.00;98488.00;4959315;28;20429;-88
2022/11/01 07:13:58;;;;;;;1.92;0.95;;;;;;;12.90;100.00;98494.63;4946365;28;20051;-88
2022/11/01 07:16:25;;;;;;;1.33;0.90;;;;;;;12.86;100.00;98467.78;4967206;28;20520;-87
2022/11/01 07:18:52;;;;;;;2.05;1.00;;;;;;;13.11;100.00;98505.97;4965423;28;20417;-88
2022/11/01 07:21:19;;;;;;;1.73;1.00;;;;;;;12.87;100.00;98460.72;4974204;28;20481;-88
2022/11/01 07:23:46;;;;;;;2.15;1.00;;;;;;;13.02;100.00;98505.91;4967733;28;20153;-88
2022/11/01 07:26:12;;;;;;;3.30;0.90;;;;;;;12.65;100.00;98440.69;4952463;28;20058;-88
2022/11/01 07:28:40;;;;;;;5.43;1.80;;;;;;;12.91;100.00;98501.56;4950830;28;20062;-88
2022/11/01 07:31:07;;;;;;;4.90;1.35;;;;;;;12.82;100.00;98481.28;4953505;28;20054;-88
2022/11/01 07:33:33;;;;;;;5.10;1.30;;;;;;;12.71;100.00;98472.53;4963436;28;20062;-87
2022/11/01 07:36:01;;;;;;;2.83;1.17;;;;;;;12.94;100.00;98498.66;4951056;28;20046;-88
2022/11/01 07:38:28;;;;;;;3.47;1.17;;;;;;;12.78;100.00;98467.59;4947774;28;20482;-88
2022/11/01 07:40:55;;;;;;;3.33;1.20;;;;;;;12.87;100.00;98473.88;4968821;28;20050;-88
2022/11/01 07:43:22;;;;;;;1.77;0.95;;;;;;;12.64;100.00;98450.38;4957730;28;20090;-84
2022/11/01 07:45:49;;;;;;;2.00;1.00;;;;;;;12.89;100.00;98506.94;4967406;28;20052;-86
2022/11/01 07:48:17;;;;;;;3.40;1.25;;;;;;;12.60;100.00;98469.13;4968890;28;20046;-85
2022/11/01 07:50:45;;;;;;;3.95;1.48;;;;;;;12.77;100.00;98494.00;4968474;28;20047;-85
2022/11/01 07:53:17;;;;;;;3.97;1.38;;;;;;;12.28;100.00;98435.84;4968655;28;20043;-85
2022/11/01 07:55:45;;;;;;;3.95;1.40;;;;;;;12.65;100.00;98493.19;4967994;28;20051;-85
2022/11/01 07:58:13;;;;;;;5.32;1.70;;;;;;;12.56;100.00;98496.59;4969470;28;20062;-85
2022/11/01 08:00:41;;;;;;;4.55;1.50;;;;;;;12.41;100.00;98462.75;4963513;28;20054;-86
2022/11/01 08:03:18;;;;;;;2.92;1.20;;;;;;;12.43;100.00;98501.97;4967851;28;20551;-84
2022/11/01 08:05:47;;;;;;;5.22;1.23;;;;;;;12.42;100.00;98500.31;4964644;28;20077;-84
2022/11/01 08:08:15;;;;;;;2.55;1.15;;;;;;;12.22;100.00;98473.06;4980607;28;20054;-84
2022/11/01 08:10:42;;;;;;;2.55;1.10;;;;;;;12.15;100.00;98463.06;4960809;28;20047;-84
2022/11/01 08:13:20;;;;;;;2.15;0.90;;;;;;;12.24;100.00;98481.66;4981023;28;20059;-83
2022/11/01 08:15:48;;;;;;;3.15;1.13;;;;;;;12.13;100.00;98477.28;4950337;28;20042;-83
2022/11/01 08:18:17;;;;;;;1.90;1.10;;;;;;;12.05;100.00;98461.31;4978719;28;20074;-84
2022/11/01 08:20:43;;;;;;;2.53;1.10;;;;;;;12.10;100.00;98464.38;4957524;29;20047;-84
2022/11/01 08:23:10;;;;;;;2.45;0.90;;;;;;;12.14;100.00;98453.50;4969967;28;20057;-84
2022/11/01 08:25:37;;;;;;;3.22;1.20;;;;;;;12.15;100.00;98483.22;4976242;28;20065;-84
2022/11/01 08:28:16;;;;;;;4.53;1.27;;;;;;;11.99;100.00;98482.75;4952901;28;20567;-84
2022/11/01 08:30:45;;;;;;;3.90;1.20;;;;;;;12.10;100.00;98469.63;4980670;28;20046;-84
2022/11/01 08:33:12;;;;;;;3.35;1.23;;;;;;;12.24;100.00;98482.47;4964054;28;20057;-84
2022/11/01 08:35:38;;;;;;;2.28;1.00;;;;;;;12.40;100.00;98474.19;4967182;28;20067;-86
2022/11/01 08:38:09;;;;;;;4.10;1.20;;;;;;;12.24;100.00;98484.28;4966632;28;20110;-85
2022/11/01 08:40:36;;;;;;;1.83;1.00;;;;;;;12.12;100.00;98441.50;4976332;28;20050;-84
2022/11/01 08:43:03;;;;;;;2.67;1.10;;;;;;;12.32;100.00;98469.59;4983300;28;20050;-87
2022/11/01 08:45:31;;;;;;;3.03;1.10;;;;;;;12.17;100.00;98447.19;4989188;28;20469;-88
2022/11/01 08:48:12;;;;;;;1.38;0.93;;;;;;;12.35;100.00;98466.69;4970357;28;20067;-85
2022/11/01 08:50:53;;;;;;;2.72;1.30;;;;;;;12.28;100.00;98470.75;4989023;28;20039;-89
2022/11/01 08:53:21;;;;;;;1.77;0.90;;;;;;;12.30;100.00;98462.78;4955369;29;20055;-90
2022/11/01 08:56:02;;;;;;;4.57;1.10;;;;;;;12.31;100.00;98465.28;4972431;28;20055;-89
2022/11/01 08:58:38;;;;;;;3.13;1.20;;;;;;;11.98;100.00;98455.69;4964388;28;20050;-88
2022/11/01 09:01:10;;;;;;;2.83;1.00;;;;;;;12.31;100.00;98481.03;4968162;28;20058;-88
2022/11/01 09:03:54;;;;;;;2.25;1.00;;;;;;;12.20;100.00;98448.72;4952801;29;20042;-88
2022/11/01 09:06:35;;;;;;;3.00;1.10;;;;;;;12.38;100.00;98470.00;4987565;28;20090;-88
2022/11/01 09:09:16;;;;;;;2.45;1.20;;;;;;;12.53;100.00;98480.09;4970754;28;20065;-89
2022/11/01 09:11:56;;;;;;;2.72;1.00;;;;;;;12.50;100.00;98493.50;4973543;28;20038;-88
2022/11/01 09:14:37;;;;;;;3.00;1.00;;;;;;;12.40;100.00;98491.75;4960892;28;20051;-88
2022/11/01 09:17:18;;;;;;;3.90;1.20;;;;;;;12.10;100.00;98440.78;4972622;28;20069;-88
2022/11/01 09:19:58;;;;;;;3.70;1.17;;;;;;;12.23;100.00;98465.06;4971806;28;20058;-88
2022/11/01 09:22:37;;;;;;;2.97;1.25;;;;;;;12.22;100.00;98487.00;4979922;28;20051;-88
2022/11/01 09:25:06;;;;;;;3.03;1.17;;;;;;;12.15;100.00;98457.00;4970981;28;20066;-88
2022/11/01 09:27:34;;;;;;;2.58;1.20;;;;;;;12.27;100.00;98473.50;4954833;28;20486;-88
2022/11/01 09:30:03;;;;;;;2.50;0.95;;;;;;;12.29;100.00;98461.94;4969427;28;20057;-86
2022/11/01 09:32:32;;;;;;;2.33;1.00;;;;;;;12.39;100.00;98469.06;4987411;28;20046;-88
2022/11/01 09:35:04;;;;;;;3.33;1.08;;;;;;;12.54;100.00;98494.09;4986637;28;20114;-88
2022/11/01 09:37:32;;;;;;;2.47;1.15;;;;;;;12.54;100.00;98494.09;4969569;28;20059;-86
2022/11/01 09:40:02;;;;;;;2.67;1.02;;;;;;;12.29;100.00;98475.06;4969464;28;20075;-88
2022/11/01 09:42:38;;;;;;;1.75;0.90;;;;;;;12.46;100.00;98491.22;4990580;28;20061;-88
2022/11/01 09:45:28;;;;;;;1.88;1.05;;;;;;;12.51;100.00;98502.19;4990517;28;20050;-87
2022/11/01 09:48:12;;;;;;;27.27;1.52;;;;;;;12.28;100.00;98462.91;4972415;28;20114;-88
2022/11/01 09:50:43;;;;;;;2.50;1.00;;;;;;;12.46;100.00;98501.72;4967979;29;20477;-87
2022/11/01 09:53:19;;;;;;;1.77;1.00;;;;;;;12.46;100.00;98492.06;4986339;28;20077;-88
2022/11/01 09:55:54;;;;;;;2.42;0.80;;;;;;;12.54;100.00;98480.94;4976983;28;20050;-90
2022/11/01 09:58:37;;;;;;;;;;;;;;;12.62;100.00;98486.38;4994587;28;20186;-88
2022/11/01 10:01:39;;;;;;;1.95;1.00;;;;;;;12.62;100.00;98491.63;4992842;28;19929;-89
2022/11/01 10:04:39;;;;;;;1.73;0.80;;;;;;;12.62;100.00;98489.00;4987148;28;20065;-89
2022/11/01 10:07:31;;;;;;;2.15;1.00;;;;;;;12.40;100.00;98470.75;4993761;28;20051;-89
2022/11/01 10:10:25;;;;;;;2.80;1.40;;;;;;;13.01;100.00;98488.47;4978262;28;20085;-89
2022/11/01 10:13:31;;;;;;;2.90;0.95;;;;;;;12.98;100.00;98492.22;4978968;28;20046;-89
2022/11/01 10:16:33;;;;;;;1.50;0.85;;;;;;;12.80;100.00;98439.44;4960219;29;20058;-89
2022/11/01 10:19:20;;;;;;;2.25;1.00;;;;;;;13.26;100.00;98501.25;4980273;28;20046;-89
2022/11/01 10:22:30;;;;;;;1.70;0.90;;;;;;;13.39;100.00;98495.81;4986012;28;20035;-89
2022/11/01 10:25:22;;;;;;;1.95;0.90;;;;;;;13.25;100.00;98493.47;4967710;28;20062;-89
2022/11/01 10:28:52;;;;;;;1.70;0.90;;;;;;;13.33;100.00;98477.09;4978997;28;20047;-89
2022/11/01 10:31:36;;;;;;;1.60;0.80;;;;;;;13.15;100.00;98467.13;4960371;28;20134;-89
2022/11/01 10:34:34;;;;;;;3.75;1.10;;;;;;;13.51;100.00;98493.09;4963428;28;20046;-87
2022/11/01 10:37:39;;;;;;;2.25;0.90;;;;;;;13.53;100.00;98476.22;4977707;28;20085;-89
2022/11/01 10:40:27;;;;;;;1.88;0.90;;;;;;;13.62;100.00;98470.16;4969397;29;20035;-89
2022/11/01 10:43:14;;;;;;;1.85;0.90;;;;;;;13.61;100.00;98499.22;4968378;28;20082;-87
2022/11/01 10:45:57;;;;;;;1.98;0.98;;;;;;;13.67;100.00;98514.50;4978544;28;20129;-88
2022/11/01 10:48:51;;;;;;;2.80;1.00;;;;;;;13.09;100.00;98513.16;4956644;29;20394;-88
2022/11/01 10:51:34;;;;;;;1.42;0.80;;;;;;;12.93;100.00;98486.50;4969812;29;20042;-88
2022/11/01 10:54:21;;;;;;;2.75;1.10;;;;;;;12.94;100.00;98487.31;4971564;28;20151;-88
2022/11/01 10:57:02;;;;;;;1.33;0.80;;;;;;;13.10;100.00;98525.34;4992972;28;20067;-88
2022/11/01 10:59:47;;;;;;;2.25;0.98;;;;;;;13.02;100.00;98522.50;4981383;28;20043;-89
2022/11/01 11:02:36;;;;;;;2.17;0.88;;;;;;;13.10;100.00;98524.50;4970529;28;20093;-89
2022/11/01 11:05:19;;;;;;;2.33;1.20;;;;;;;12.99;100.00;98495.66;4977368;28;20055;-89
2022/11/01 11:08:03;;;;;;;3.00;1.05;;;;;;;12.94;100.00;98506.53;4991462;28;20100;-89
2022/11/01 11:10:34;;;;;;;3.63;1.00;;;;;;;13.03;100.00;98537.31;4986550;28;20053;-89
2022/11/01 11:13:19;;;;;;;3.50;1.10;;;;;;;12.99;100.00;98532.44;4982383;28;20051;-89
2022/11/01 11:16:04;;;;;;;2.25;0.98;;;;;;;13.03;100.00;98525.97;4976425;28;20050;-89
2022/11/01 11:19:20;;;;;;;6.30;1.35;;;;;;;12.94;100.00;98519.66;4960999;28;20059;-89
2022/11/01 11:21:52;;;;;;;4.07;1.15;;;;;;;13.26;100.00;98538.03;4965593;28;20054;-88
2022/11/01 11:24:35;;;;;;;3.53;1.08;;;;;;;14.23;100.00;98557.88;4982589;28;20114;-88
2022/11/01 11:27:22;;;;;;;2.35;0.90;;;;;;;14.59;100.00;98547.75;4972189;28;20054;-88
2022/11/01 11:30:06;;;;;;;2.60;1.10;;;;;;;14.63;100.00;98549.13;4973143;28;20043;-89
2022/11/01 11:32:39;;;;;;;2.10;0.82;;;;;;;14.65;100.00;98549.00;4966785;28;20059;-89
2022/11/01 11:35:23;;;;;;;1.63;0.93;;;;;;;14.39;100.00;98546.84;4975881;28;20054;-89
2022/11/01 11:37:54;;;;;;;4.15;1.00;;;;;;;14.66;100.00;98555.91;4953186;28;20410;-88
2022/11/01 11:40:24;;;;;;;1.77;0.80;;;;;;;14.47;100.00;98536.47;4971354;28;20053;-88
2022/11/01 11:42:55;;;;;;;1.67;0.80;;;;;;;14.87;100.00;98545.25;4964758;28;20061;-89
2022/11/01 11:45:28;;;;;;;1.10;0.80;;;;;;;14.92;100.00;98517.50;4972724;28;20059;-89
2022/11/01 11:48:20;;;;;;;2.22;1.08;;;;;;;14.76;100.00;98493.53;4970954;28;20054;-88
2022/11/01 11:51:03;;;;;;;2.72;1.00;;;;;;;14.95;100.00;98511.97;4965469;28;20051;-88
2022/11/01 11:54:10;;;;;;;2.47;1.08;;;;;;;15.06;100.00;98534.72;4964635;28;20054;-86
2022/11/01 11:56:37;;;;;;;2.00;0.90;;;;;;;14.97;100.00;98511.84;4980427;28;20460;-85
2022/11/01 11:59:15;;;;;;;1.83;0.90;;;;;;;15.00;100.00;98517.66;4979206;28;20109;-85
2022/11/01 12:01:42;;;;;;;2.67;0.90;;;;;;;14.74;100.00;98500.75;4961719;28;20536;-85